sensor_id;sensor_type;location;lat;lon;timestamp;temperature;humidity
54898;DHT22;40800;52.704;6.398;2022-09-09T00:00:59;14.40;99.90
54898;DHT22;40800;52.704;6.398;2022-09-09T00:06:52;14.60;99.90
54898;DHT22;40800;52.704;6.398;2022-09-09T00:09:22;14.60;99.90
54898;DHT22;40800;52.704;6.398;2022-09-09T00:11:54;14.50;99.90
54898;DHT22;40800;52.704;6.398;2022-09-09T00:19:56;14.40;99.90
54898;DHT22;40800;52.704;6.398;2022-09-09T00:22:28;14.50;99.90
54898;DHT22;40800;52.704;6.398;2022-09-09T00:25:23;14.70;99.90
54898;DHT22;40800;52.704;6.398;2022-09-09T00:27:48;14.60;99.90
54898;DHT22;40800;52.704;6.398;2022-09-09T00:30:16;14.90;99.90
54898;DHT22;40800;52.704;6.398;2022-09-09T00:32:46;14.60;99.90
54898;DHT22;40800;52.704;6.398;2022-09-09T00:35:30;14.60;99.90
54898;DHT22;40800;52.704;6.398;2022-09-09T00:38:00;14.60;99.90
54898;DHT22;40800;52.704;6.398;2022-09-09T00:40:34;14.70;99.90
54898;DHT22;40800;52.704;6.398;2022-09-09T00:43:28;14.70;99.90
54898;DHT22;40800;52.704;6.398;2022-09-09T00:46:13;14.80;99.90
54898;DHT22;40800;52.704;6.398;2022-09-09T00:48:58;14.60;99.90
54898;DHT22;40800;52.704;6.398;2022-09-09T00:57:45;14.70;99.90
54898;DHT22;40800;52.704;6.398;2022-09-09T01:02:29;14.80;99.90
54898;DHT22;40800;52.704;6.398;2022-09-09T01:05:12;14.70;99.90
54898;DHT22;40800;52.704;6.398;2022-09-09T01:07:40;14.50;99.90
54898;DHT22;40800;52.704;6.398;2022-09-09T01:13:04;14.40;99.90
54898;DHT22;40800;52.704;6.398;2022-09-09T01:15:34;14.50;99.90
54898;DHT22;40800;52.704;6.398;2022-09-09T01:18:13;14.70;99.90
54898;DHT22;40800;52.704;6.398;2022-09-09T01:28:54;14.60;99.90
54898;DHT22;40800;52.704;6.398;2022-09-09T01:31:36;14.80;99.90
54898;DHT22;40800;52.704;6.398;2022-09-09T01:34:02;14.60;99.90
54898;DHT22;40800;52.704;6.398;2022-09-09T01:36:39;14.80;99.90
54898;DHT22;40800;52.704;6.398;2022-09-09T01:39:07;15.00;99.90
54898;DHT22;40800;52.704;6.398;2022-09-09T01:41:33;14.90;99.90
54898;DHT22;40800;52.704;6.398;2022-09-09T01:43:59;15.20;99.90
54898;DHT22;40800;52.704;6.398;2022-09-09T01:46:24;15.00;99.90
54898;DHT22;40800;52.704;6.398;2022-09-09T01:48:52;15.50;99.90
54898;DHT22;40800;52.704;6.398;2022-09-09T01:51:18;15.10;99.90
54898;DHT22;40800;52.704;6.398;2022-09-09T01:53:45;15.20;99.90
54898;DHT22;40800;52.704;6.398;2022-09-09T01:59:24;14.90;99.90
54898;DHT22;40800;52.704;6.398;2022-09-09T02:04:48;14.80;99.90
54898;DHT22;40800;52.704;6.398;2022-09-09T02:07:37;14.70;99.90
54898;DHT22;40800;52.704;6.398;2022-09-09T02:12:40;14.70;99.90
54898;DHT22;40800;52.704;6.398;2022-09-09T02:15:46;14.80;99.90
54898;DHT22;40800;52.704;6.398;2022-09-09T02:18:06;14.70;99.90
54898;DHT22;40800;52.704;6.398;2022-09-09T02:20:33;14.90;99.90
54898;DHT22;40800;52.704;6.398;2022-09-09T02:23:01;14.80;99.90
54898;DHT22;40800;52.704;6.398;2022-09-09T02:25:28;15.60;99.90
54898;DHT22;40800;52.704;6.398;2022-09-09T02:27:57;14.80;99.90
54898;DHT22;40800;52.704;6.398;2022-09-09T02:30:28;14.80;99.90
54898;DHT22;40800;52.704;6.398;2022-09-09T02:32:56;14.60;99.90
54898;DHT22;40800;52.704;6.398;2022-09-09T02:35:24;14.70;99.90
54898;DHT22;40800;52.704;6.398;2022-09-09T02:37:51;14.80;99.90
54898;DHT22;40800;52.704;6.398;2022-09-09T02:40:18;14.80;99.90
54898;DHT22;40800;52.704;6.398;2022-09-09T02:42:46;14.80;99.90
54898;DHT22;40800;52.704;6.398;2022-09-09T02:45:16;15.20;99.90
54898;DHT22;40800;52.704;6.398;2022-09-09T02:50:35;14.90;99.90
54898;DHT22;40800;52.704;6.398;2022-09-09T02:53:31;15.10;99.90
54898;DHT22;40800;52.704;6.398;2022-09-09T02:56:11;15.30;99.90
54898;DHT22;40800;52.704;6.398;2022-09-09T02:58:39;15.30;99.90
54898;DHT22;40800;52.704;6.398;2022-09-09T03:01:05;15.30;99.90
54898;DHT22;40800;52.704;6.398;2022-09-09T03:03:31;15.20;99.90
54898;DHT22;40800;52.704;6.398;2022-09-09T03:05:57;15.20;99.90
54898;DHT22;40800;52.704;6.398;2022-09-09T03:08:23;15.50;99.90
54898;DHT22;40800;52.704;6.398;2022-09-09T03:10:48;15.50;99.90
54898;DHT22;40800;52.704;6.398;2022-09-09T03:13:15;15.30;99.90
54898;DHT22;40800;52.704;6.398;2022-09-09T03:15:41;15.50;99.90
54898;DHT22;40800;52.704;6.398;2022-09-09T03:18:06;15.40;99.90
54898;DHT22;40800;52.704;6.398;2022-09-09T03:20:32;15.30;99.90
54898;DHT22;40800;52.704;6.398;2022-09-09T03:22:59;15.80;99.90
54898;DHT22;40800;52.704;6.398;2022-09-09T03:25:25;15.40;99.90
54898;DHT22;40800;52.704;6.398;2022-09-09T03:27:52;15.10;99.90
54898;DHT22;40800;52.704;6.398;2022-09-09T03:30:25;15.30;99.90
54898;DHT22;40800;52.704;6.398;2022-09-09T03:32:51;15.00;99.90
54898;DHT22;40800;52.704;6.398;2022-09-09T03:35:18;14.90;99.90
54898;DHT22;40800;52.704;6.398;2022-09-09T03:37:44;15.10;99.90
54898;DHT22;40800;52.704;6.398;2022-09-09T03:40:10;15.40;99.90
54898;DHT22;40800;52.704;6.398;2022-09-09T03:42:36;14.80;99.90
54898;DHT22;40800;52.704;6.398;2022-09-09T03:45:07;15.00;99.90
54898;DHT22;40800;52.704;6.398;2022-09-09T03:47:34;15.20;99.90
54898;DHT22;40800;52.704;6.398;2022-09-09T03:50:00;15.50;99.90
54898;DHT22;40800;52.704;6.398;2022-09-09T03:52:25;15.30;99.90
54898;DHT22;40800;52.704;6.398;2022-09-09T03:54:52;15.60;99.90
54898;DHT22;40800;52.704;6.398;2022-09-09T03:57:18;15.30;99.90
54898;DHT22;40800;52.704;6.398;2022-09-09T03:59:44;15.50;99.90
54898;DHT22;40800;52.704;6.398;2022-09-09T04:02:10;15.50;99.90
54898;DHT22;40800;52.704;6.398;2022-09-09T04:04:35;15.50;99.90
54898;DHT22;40800;52.704;6.398;2022-09-09T04:07:01;15.10;99.90
54898;DHT22;40800;52.704;6.398;2022-09-09T04:09:26;15.70;99.90
54898;DHT22;40800;52.704;6.398;2022-09-09T04:11:52;15.80;99.90
54898;DHT22;40800;52.704;6.398;2022-09-09T04:14:19;15.70;99.90
54898;DHT22;40800;52.704;6.398;2022-09-09T04:16:44;15.30;99.90
54898;DHT22;40800;52.704;6.398;2022-09-09T04:19:11;15.50;99.90
54898;DHT22;40800;52.704;6.398;2022-09-09T04:21:40;15.50;99.90
54898;DHT22;40800;52.704;6.398;2022-09-09T04:24:09;15.10;99.90
54898;DHT22;40800;52.704;6.398;2022-09-09T04:26:36;15.30;99.90
54898;DHT22;40800;52.704;6.398;2022-09-09T04:29:03;15.00;99.90
54898;DHT22;40800;52.704;6.398;2022-09-09T04:31:29;15.20;99.90
54898;DHT22;40800;52.704;6.398;2022-09-09T04:33:55;15.10;99.90
54898;DHT22;40800;52.704;6.398;2022-09-09T04:36:20;14.70;99.90
54898;DHT22;40800;52.704;6.398;2022-09-09T04:38:46;14.70;99.90
54898;DHT22;40800;52.704;6.398;2022-09-09T04:41:14;14.80;99.90
54898;DHT22;40800;52.704;6.398;2022-09-09T04:43:40;14.80;99.90
54898;DHT22;40800;52.704;6.398;2022-09-09T04:46:06;14.80;99.90
54898;DHT22;40800;52.704;6.398;2022-09-09T04:48:32;15.20;99.90
54898;DHT22;40800;52.704;6.398;2022-09-09T04:50:59;15.10;99.90
54898;DHT22;40800;52.704;6.398;2022-09-09T04:53:26;14.80;99.90
54898;DHT22;40800;52.704;6.398;2022-09-09T04:56:10;15.00;99.90
54898;DHT22;40800;52.704;6.398;2022-09-09T04:58:36;15.10;99.90
54898;DHT22;40800;52.704;6.398;2022-09-09T05:01:04;15.00;99.90
54898;DHT22;40800;52.704;6.398;2022-09-09T05:03:30;14.90;99.90
54898;DHT22;40800;52.704;6.398;2022-09-09T05:06:03;15.20;99.90
54898;DHT22;40800;52.704;6.398;2022-09-09T05:08:29;14.70;99.90
54898;DHT22;40800;52.704;6.398;2022-09-09T05:10:55;14.70;99.90
54898;DHT22;40800;52.704;6.398;2022-09-09T05:13:20;14.90;99.90
54898;DHT22;40800;52.704;6.398;2022-09-09T05:15:53;15.20;99.90
54898;DHT22;40800;52.704;6.398;2022-09-09T05:18:19;14.90;99.90
54898;DHT22;40800;52.704;6.398;2022-09-09T05:20:45;14.90;99.90
54898;DHT22;40800;52.704;6.398;2022-09-09T05:23:11;14.90;99.90
54898;DHT22;40800;52.704;6.398;2022-09-09T05:25:37;14.70;99.90
54898;DHT22;40800;52.704;6.398;2022-09-09T05:28:03;14.50;99.90
54898;DHT22;40800;52.704;6.398;2022-09-09T05:30:28;14.90;99.90
54898;DHT22;40800;52.704;6.398;2022-09-09T05:32:56;14.70;99.90
54898;DHT22;40800;52.704;6.398;2022-09-09T05:35:22;15.10;99.90
54898;DHT22;40800;52.704;6.398;2022-09-09T05:37:48;14.90;99.90
54898;DHT22;40800;52.704;6.398;2022-09-09T05:40:14;14.60;99.90
54898;DHT22;40800;52.704;6.398;2022-09-09T05:42:40;14.50;99.90
54898;DHT22;40800;52.704;6.398;2022-09-09T05:45:07;14.40;99.90
54898;DHT22;40800;52.704;6.398;2022-09-09T05:47:33;14.30;99.90
54898;DHT22;40800;52.704;6.398;2022-09-09T05:49:59;14.40;99.90
54898;DHT22;40800;52.704;6.398;2022-09-09T05:52:24;14.40;99.90
54898;DHT22;40800;52.704;6.398;2022-09-09T05:54:51;14.40;99.90
54898;DHT22;40800;52.704;6.398;2022-09-09T05:57:17;14.20;99.90
54898;DHT22;40800;52.704;6.398;2022-09-09T05:59:44;14.30;99.90
54898;DHT22;40800;52.704;6.398;2022-09-09T06:02:10;14.50;99.90
54898;DHT22;40800;52.704;6.398;2022-09-09T06:04:35;14.60;99.90
54898;DHT22;40800;52.704;6.398;2022-09-09T06:07:01;14.60;99.90
54898;DHT22;40800;52.704;6.398;2022-09-09T06:09:27;14.60;99.90
54898;DHT22;40800;52.704;6.398;2022-09-09T06:11:52;14.90;99.90
54898;DHT22;40800;52.704;6.398;2022-09-09T06:14:19;14.80;99.90
54898;DHT22;40800;52.704;6.398;2022-09-09T06:16:45;14.80;99.90
54898;DHT22;40800;52.704;6.398;2022-09-09T06:19:11;15.00;99.90
54898;DHT22;40800;52.704;6.398;2022-09-09T06:21:38;15.40;99.90
54898;DHT22;40800;52.704;6.398;2022-09-09T06:24:04;15.60;99.90
54898;DHT22;40800;52.704;6.398;2022-09-09T06:26:35;15.40;99.90
54898;DHT22;40800;52.704;6.398;2022-09-09T06:29:02;15.30;99.90
54898;DHT22;40800;52.704;6.398;2022-09-09T06:31:33;15.50;99.90
54898;DHT22;40800;52.704;6.398;2022-09-09T06:34:00;15.60;99.90
54898;DHT22;40800;52.704;6.398;2022-09-09T06:36:30;15.70;99.90
54898;DHT22;40800;52.704;6.398;2022-09-09T06:38:58;15.70;99.90
54898;DHT22;40800;52.704;6.398;2022-09-09T06:41:27;16.10;99.90
54898;DHT22;40800;52.704;6.398;2022-09-09T06:43:53;15.90;99.90
54898;DHT22;40800;52.704;6.398;2022-09-09T06:46:21;16.20;99.90
54898;DHT22;40800;52.704;6.398;2022-09-09T06:48:53;16.20;99.90
54898;DHT22;40800;52.704;6.398;2022-09-09T06:51:26;16.40;99.90
54898;DHT22;40800;52.704;6.398;2022-09-09T06:53:54;16.10;99.90
54898;DHT22;40800;52.704;6.398;2022-09-09T06:56:21;16.30;99.90
54898;DHT22;40800;52.704;6.398;2022-09-09T06:58:49;16.40;99.90
54898;DHT22;40800;52.704;6.398;2022-09-09T07:01:24;16.10;99.90
54898;DHT22;40800;52.704;6.398;2022-09-09T07:03:52;16.20;99.90
54898;DHT22;40800;52.704;6.398;2022-09-09T07:06:24;16.40;99.90
54898;DHT22;40800;52.704;6.398;2022-09-09T07:09:07;16.60;99.90
54898;DHT22;40800;52.704;6.398;2022-09-09T07:11:39;16.60;99.90
54898;DHT22;40800;52.704;6.398;2022-09-09T07:14:06;16.50;99.90
54898;DHT22;40800;52.704;6.398;2022-09-09T07:16:33;16.30;99.90
54898;DHT22;40800;52.704;6.398;2022-09-09T07:19:03;16.60;99.90
54898;DHT22;40800;52.704;6.398;2022-09-09T07:21:30;16.90;99.90
54898;DHT22;40800;52.704;6.398;2022-09-09T07:23:56;16.60;99.90
54898;DHT22;40800;52.704;6.398;2022-09-09T07:26:24;16.70;99.90
54898;DHT22;40800;52.704;6.398;2022-09-09T07:28:49;16.70;99.90
54898;DHT22;40800;52.704;6.398;2022-09-09T07:31:17;17.00;99.90
54898;DHT22;40800;52.704;6.398;2022-09-09T07:33:44;16.30;99.90
54898;DHT22;40800;52.704;6.398;2022-09-09T07:36:25;16.40;99.90
54898;DHT22;40800;52.704;6.398;2022-09-09T07:39:03;16.30;99.90
54898;DHT22;40800;52.704;6.398;2022-09-09T07:41:36;16.70;99.90
54898;DHT22;40800;52.704;6.398;2022-09-09T07:44:06;16.70;99.90
54898;DHT22;40800;52.704;6.398;2022-09-09T07:46:32;16.90;99.90
54898;DHT22;40800;52.704;6.398;2022-09-09T07:48:59;16.40;99.90
54898;DHT22;40800;52.704;6.398;2022-09-09T07:51:28;16.30;99.90
54898;DHT22;40800;52.704;6.398;2022-09-09T07:53:59;16.40;99.90
54898;DHT22;40800;52.704;6.398;2022-09-09T07:56:28;16.60;99.90
54898;DHT22;40800;52.704;6.398;2022-09-09T07:58:55;16.70;99.90
54898;DHT22;40800;52.704;6.398;2022-09-09T08:01:26;16.40;99.90
54898;DHT22;40800;52.704;6.398;2022-09-09T08:03:55;16.70;99.90
54898;DHT22;40800;52.704;6.398;2022-09-09T08:06:21;16.70;99.90
54898;DHT22;40800;52.704;6.398;2022-09-09T08:08:50;17.10;99.90
54898;DHT22;40800;52.704;6.398;2022-09-09T08:11:16;16.90;99.90
54898;DHT22;40800;52.704;6.398;2022-09-09T08:13:43;16.60;99.90
54898;DHT22;40800;52.704;6.398;2022-09-09T08:16:15;17.10;99.90
54898;DHT22;40800;52.704;6.398;2022-09-09T08:18:41;17.00;99.90
54898;DHT22;40800;52.704;6.398;2022-09-09T08:21:12;17.00;99.90
54898;DHT22;40800;52.704;6.398;2022-09-09T08:23:43;17.00;99.90
54898;DHT22;40800;52.704;6.398;2022-09-09T08:26:14;17.00;99.90
54898;DHT22;40800;52.704;6.398;2022-09-09T08:28:41;17.30;99.90
54898;DHT22;40800;52.704;6.398;2022-09-09T08:31:12;17.60;99.90
54898;DHT22;40800;52.704;6.398;2022-09-09T08:33:38;17.70;99.90
54898;DHT22;40800;52.704;6.398;2022-09-09T08:36:05;17.30;99.90
54898;DHT22;40800;52.704;6.398;2022-09-09T08:38:32;17.30;99.90
54898;DHT22;40800;52.704;6.398;2022-09-09T08:47:20;17.20;99.90
54898;DHT22;40800;52.704;6.398;2022-09-09T08:55:34;17.40;99.90
54898;DHT22;40800;52.704;6.398;2022-09-09T08:58:09;17.20;99.90
54898;DHT22;40800;52.704;6.398;2022-09-09T09:11:33;17.60;99.90
54898;DHT22;40800;52.704;6.398;2022-09-09T09:14:11;17.60;99.90
54898;DHT22;40800;52.704;6.398;2022-09-09T09:19:30;18.10;99.90
54898;DHT22;40800;52.704;6.398;2022-09-09T09:24:34;18.20;99.90
54898;DHT22;40800;52.704;6.398;2022-09-09T09:29:58;18.20;99.90
54898;DHT22;40800;52.704;6.398;2022-09-09T09:32:25;18.10;99.90
54898;DHT22;40800;52.704;6.398;2022-09-09T09:34:57;18.10;99.90
54898;DHT22;40800;52.704;6.398;2022-09-09T09:37:29;18.00;99.90
54898;DHT22;40800;52.704;6.398;2022-09-09T09:39:55;17.80;99.90
54898;DHT22;40800;52.704;6.398;2022-09-09T09:42:22;17.60;99.90
54898;DHT22;40800;52.704;6.398;2022-09-09T09:44:47;17.80;99.90
54898;DHT22;40800;52.704;6.398;2022-09-09T09:47:19;17.80;99.90
54898;DHT22;40800;52.704;6.398;2022-09-09T09:49:55;17.80;99.90
54898;DHT22;40800;52.704;6.398;2022-09-09T09:52:26;17.70;99.90
54898;DHT22;40800;52.704;6.398;2022-09-09T09:54:54;17.90;99.90
54898;DHT22;40800;52.704;6.398;2022-09-09T09:57:26;18.10;99.90
54898;DHT22;40800;52.704;6.398;2022-09-09T10:00:13;18.10;99.90
54898;DHT22;40800;52.704;6.398;2022-09-09T10:02:41;18.20;99.90
54898;DHT22;40800;52.704;6.398;2022-09-09T10:05:28;18.40;99.90
54898;DHT22;40800;52.704;6.398;2022-09-09T10:08:15;18.70;99.90
54898;DHT22;40800;52.704;6.398;2022-09-09T10:16:45;18.90;99.90
54898;DHT22;40800;52.704;6.398;2022-09-09T10:19:29;19.10;99.90
54898;DHT22;40800;52.704;6.398;2022-09-09T10:24:54;18.60;99.90
54898;DHT22;40800;52.704;6.398;2022-09-09T10:30:16;18.30;99.90
54898;DHT22;40800;52.704;6.398;2022-09-09T10:33:08;18.20;99.90
54898;DHT22;40800;52.704;6.398;2022-09-09T10:35:56;18.00;99.90
54898;DHT22;40800;52.704;6.398;2022-09-09T10:44:25;18.00;99.90
54898;DHT22;40800;52.704;6.398;2022-09-09T10:47:20;17.90;99.90
54898;DHT22;40800;52.704;6.398;2022-09-09T10:50:18;18.00;99.90
54898;DHT22;40800;52.704;6.398;2022-09-09T10:53:02;17.90;99.90
54898;DHT22;40800;52.704;6.398;2022-09-09T10:55:41;17.90;99.90
54898;DHT22;40800;52.704;6.398;2022-09-09T10:58:14;18.00;99.90
54898;DHT22;40800;52.704;6.398;2022-09-09T11:00:53;18.00;99.90
54898;DHT22;40800;52.704;6.398;2022-09-09T11:03:22;18.10;99.90
54898;DHT22;40800;52.704;6.398;2022-09-09T11:05:53;18.10;99.90
54898;DHT22;40800;52.704;6.398;2022-09-09T11:08:25;18.00;99.90
54898;DHT22;40800;52.704;6.398;2022-09-09T11:11:25;17.80;99.90
54898;DHT22;40800;52.704;6.398;2022-09-09T11:13:54;17.70;99.90
54898;DHT22;40800;52.704;6.398;2022-09-09T11:19:34;18.00;99.90
54898;DHT22;40800;52.704;6.398;2022-09-09T11:22:04;18.10;99.90
54898;DHT22;40800;52.704;6.398;2022-09-09T11:24:41;18.20;99.90
54898;DHT22;40800;52.704;6.398;2022-09-09T11:27:29;18.40;99.90
54898;DHT22;40800;52.704;6.398;2022-09-09T11:41:10;19.00;99.90
54898;DHT22;40800;52.704;6.398;2022-09-09T11:43:50;18.70;99.90
54898;DHT22;40800;52.704;6.398;2022-09-09T11:46:20;18.90;99.90
54898;DHT22;40800;52.704;6.398;2022-09-09T11:49:01;19.80;99.90
54898;DHT22;40800;52.704;6.398;2022-09-09T11:51:30;19.90;99.90
54898;DHT22;40800;52.704;6.398;2022-09-09T11:54:00;19.60;99.90
54898;DHT22;40800;52.704;6.398;2022-09-09T11:56:44;19.60;99.90
54898;DHT22;40800;52.704;6.398;2022-09-09T11:59:23;19.40;99.90
54898;DHT22;40800;52.704;6.398;2022-09-09T12:04:29;19.00;99.90
54898;DHT22;40800;52.704;6.398;2022-09-09T12:06:57;19.00;99.90
54898;DHT22;40800;52.704;6.398;2022-09-09T12:12:18;19.60;99.90
54898;DHT22;40800;52.704;6.398;2022-09-09T12:14:59;20.20;99.90
54898;DHT22;40800;52.704;6.398;2022-09-09T12:17:28;20.00;99.90
54898;DHT22;40800;52.704;6.398;2022-09-09T12:28:22;20.30;99.90
54898;DHT22;40800;52.704;6.398;2022-09-09T12:31:14;20.50;99.90
54898;DHT22;40800;52.704;6.398;2022-09-09T12:33:44;21.00;99.90
54898;DHT22;40800;52.704;6.398;2022-09-09T12:36:23;20.70;99.90
54898;DHT22;40800;52.704;6.398;2022-09-09T12:38:50;20.30;99.90
54898;DHT22;40800;52.704;6.398;2022-09-09T12:43:45;19.90;99.90
54898;DHT22;40800;52.704;6.398;2022-09-09T12:48:48;20.60;99.90
54898;DHT22;40800;52.704;6.398;2022-09-09T12:51:25;20.60;99.90
54898;DHT22;40800;52.704;6.398;2022-09-09T12:53:52;20.30;99.90
54898;DHT22;40800;52.704;6.398;2022-09-09T12:56:26;20.30;99.90
54898;DHT22;40800;52.704;6.398;2022-09-09T12:58:53;20.50;99.90
54898;DHT22;40800;52.704;6.398;2022-09-09T13:01:29;20.90;99.90
54898;DHT22;40800;52.704;6.398;2022-09-09T13:03:55;21.10;99.90
54898;DHT22;40800;52.704;6.398;2022-09-09T13:06:22;20.00;99.90
54898;DHT22;40800;52.704;6.398;2022-09-09T13:08:49;19.60;99.90
54898;DHT22;40800;52.704;6.398;2022-09-09T13:11:29;19.70;99.90
54898;DHT22;40800;52.704;6.398;2022-09-09T13:13:57;19.40;99.90
54898;DHT22;40800;52.704;6.398;2022-09-09T13:16:25;19.00;99.90
54898;DHT22;40800;52.704;6.398;2022-09-09T13:18:52;18.80;99.90
54898;DHT22;40800;52.704;6.398;2022-09-09T13:21:18;17.50;99.90
54898;DHT22;40800;52.704;6.398;2022-09-09T13:23:49;16.90;99.90
54898;DHT22;40800;52.704;6.398;2022-09-09T13:26:24;16.90;99.90
54898;DHT22;40800;52.704;6.398;2022-09-09T13:28:52;17.20;99.90
54898;DHT22;40800;52.704;6.398;2022-09-09T13:31:33;18.60;99.90
54898;DHT22;40800;52.704;6.398;2022-09-09T13:33:59;18.20;99.90
54898;DHT22;40800;52.704;6.398;2022-09-09T13:36:33;18.40;99.90
54898;DHT22;40800;52.704;6.398;2022-09-09T13:39:02;18.20;99.90
54898;DHT22;40800;52.704;6.398;2022-09-09T13:41:34;18.30;99.90
54898;DHT22;40800;52.704;6.398;2022-09-09T13:44:01;18.50;99.90
54898;DHT22;40800;52.704;6.398;2022-09-09T13:49:22;20.10;99.90
54898;DHT22;40800;52.704;6.398;2022-09-09T13:51:50;20.30;99.90
54898;DHT22;40800;52.704;6.398;2022-09-09T13:54:19;21.10;99.90
54898;DHT22;40800;52.704;6.398;2022-09-09T13:56:46;21.80;99.90
54898;DHT22;40800;52.704;6.398;2022-09-09T13:59:17;21.60;99.90
54898;DHT22;40800;52.704;6.398;2022-09-09T14:01:45;20.90;99.90
54898;DHT22;40800;52.704;6.398;2022-09-09T14:04:11;20.90;99.90
54898;DHT22;40800;52.704;6.398;2022-09-09T14:06:37;22.10;99.90
54898;DHT22;40800;52.704;6.398;2022-09-09T14:09:10;23.10;99.90
54898;DHT22;40800;52.704;6.398;2022-09-09T14:11:37;21.70;99.90
54898;DHT22;40800;52.704;6.398;2022-09-09T14:14:02;21.10;99.90
54898;DHT22;40800;52.704;6.398;2022-09-09T14:16:28;20.50;99.90
54898;DHT22;40800;52.704;6.398;2022-09-09T14:18:54;21.00;99.90
54898;DHT22;40800;52.704;6.398;2022-09-09T14:21:25;20.90;99.90
54898;DHT22;40800;52.704;6.398;2022-09-09T14:23:51;21.10;99.90
54898;DHT22;40800;52.704;6.398;2022-09-09T14:26:18;20.80;99.90
54898;DHT22;40800;52.704;6.398;2022-09-09T14:28:44;21.30;99.90
54898;DHT22;40800;52.704;6.398;2022-09-09T14:31:11;21.30;99.90
54898;DHT22;40800;52.704;6.398;2022-09-09T14:33:38;20.20;99.90
54898;DHT22;40800;52.704;6.398;2022-09-09T14:36:04;19.80;99.90
54898;DHT22;40800;52.704;6.398;2022-09-09T14:38:35;19.30;99.90
54898;DHT22;40800;52.704;6.398;2022-09-09T14:41:14;19.30;99.90
54898;DHT22;40800;52.704;6.398;2022-09-09T14:43:42;19.10;99.90
54898;DHT22;40800;52.704;6.398;2022-09-09T14:46:10;19.00;99.90
54898;DHT22;40800;52.704;6.398;2022-09-09T14:48:36;18.70;99.90
54898;DHT22;40800;52.704;6.398;2022-09-09T14:51:13;18.70;99.90
54898;DHT22;40800;52.704;6.398;2022-09-09T14:53:42;18.40;99.90
54898;DHT22;40800;52.704;6.398;2022-09-09T14:56:10;18.40;99.90
54898;DHT22;40800;52.704;6.398;2022-09-09T14:58:36;18.40;99.90
54898;DHT22;40800;52.704;6.398;2022-09-09T15:01:07;18.60;99.90
54898;DHT22;40800;52.704;6.398;2022-09-09T15:03:33;19.00;99.90
54898;DHT22;40800;52.704;6.398;2022-09-09T15:06:08;19.10;99.90
54898;DHT22;40800;52.704;6.398;2022-09-09T15:08:38;19.40;99.90
54898;DHT22;40800;52.704;6.398;2022-09-09T15:11:05;19.50;99.90
54898;DHT22;40800;52.704;6.398;2022-09-09T15:13:36;19.00;99.90
54898;DHT22;40800;52.704;6.398;2022-09-09T15:16:07;18.70;99.90
54898;DHT22;40800;52.704;6.398;2022-09-09T15:18:33;19.10;99.90
54898;DHT22;40800;52.704;6.398;2022-09-09T15:20:59;18.70;99.90
54898;DHT22;40800;52.704;6.398;2022-09-09T15:23:27;18.50;99.90
54898;DHT22;40800;52.704;6.398;2022-09-09T15:25:56;18.10;99.90
54898;DHT22;40800;52.704;6.398;2022-09-09T15:28:22;17.90;99.90
54898;DHT22;40800;52.704;6.398;2022-09-09T15:30:49;17.90;99.90
54898;DHT22;40800;52.704;6.398;2022-09-09T15:33:15;18.20;99.90
54898;DHT22;40800;52.704;6.398;2022-09-09T15:35:41;18.40;99.90
54898;DHT22;40800;52.704;6.398;2022-09-09T15:38:07;18.50;99.90
54898;DHT22;40800;52.704;6.398;2022-09-09T15:40:32;18.60;99.90
54898;DHT22;40800;52.704;6.398;2022-09-09T15:42:58;18.80;99.90
54898;DHT22;40800;52.704;6.398;2022-09-09T15:45:24;19.00;99.90
54898;DHT22;40800;52.704;6.398;2022-09-09T15:47:50;18.90;99.90
54898;DHT22;40800;52.704;6.398;2022-09-09T15:50:15;18.90;99.90
54898;DHT22;40800;52.704;6.398;2022-09-09T15:52:41;18.90;99.90
54898;DHT22;40800;52.704;6.398;2022-09-09T15:55:10;18.80;99.90
54898;DHT22;40800;52.704;6.398;2022-09-09T15:57:36;18.90;99.90
54898;DHT22;40800;52.704;6.398;2022-09-09T16:00:03;19.30;99.90
54898;DHT22;40800;52.704;6.398;2022-09-09T16:02:29;19.60;99.90
54898;DHT22;40800;52.704;6.398;2022-09-09T16:04:56;19.80;99.90
54898;DHT22;40800;52.704;6.398;2022-09-09T16:07:22;20.00;99.90
54898;DHT22;40800;52.704;6.398;2022-09-09T16:09:48;19.90;99.90
54898;DHT22;40800;52.704;6.398;2022-09-09T16:12:17;19.80;99.90
54898;DHT22;40800;52.704;6.398;2022-09-09T16:14:42;19.80;99.90
54898;DHT22;40800;52.704;6.398;2022-09-09T16:17:08;19.10;99.90
54898;DHT22;40800;52.704;6.398;2022-09-09T16:19:34;18.80;99.90
54898;DHT22;40800;52.704;6.398;2022-09-09T16:22:00;18.40;99.90
54898;DHT22;40800;52.704;6.398;2022-09-09T16:24:26;18.30;99.90
54898;DHT22;40800;52.704;6.398;2022-09-09T16:26:53;18.40;99.90
54898;DHT22;40800;52.704;6.398;2022-09-09T16:29:20;18.60;99.90
54898;DHT22;40800;52.704;6.398;2022-09-09T16:31:48;18.80;99.90
54898;DHT22;40800;52.704;6.398;2022-09-09T16:34:15;19.10;99.90
54898;DHT22;40800;52.704;6.398;2022-09-09T16:36:42;19.20;99.90
54898;DHT22;40800;52.704;6.398;2022-09-09T16:39:10;19.40;99.90
54898;DHT22;40800;52.704;6.398;2022-09-09T16:41:36;19.30;99.90
54898;DHT22;40800;52.704;6.398;2022-09-09T16:44:05;19.30;99.90
54898;DHT22;40800;52.704;6.398;2022-09-09T16:46:33;18.80;99.90
54898;DHT22;40800;52.704;6.398;2022-09-09T16:49:01;18.70;99.90
54898;DHT22;40800;52.704;6.398;2022-09-09T16:51:41;18.30;99.90
54898;DHT22;40800;52.704;6.398;2022-09-09T16:54:08;18.00;99.90
54898;DHT22;40800;52.704;6.398;2022-09-09T16:56:35;18.00;99.90
54898;DHT22;40800;52.704;6.398;2022-09-09T16:59:10;17.90;99.90
54898;DHT22;40800;52.704;6.398;2022-09-09T17:01:38;17.80;99.90
54898;DHT22;40800;52.704;6.398;2022-09-09T17:04:09;17.90;99.90
54898;DHT22;40800;52.704;6.398;2022-09-09T17:06:35;17.90;99.90
54898;DHT22;40800;52.704;6.398;2022-09-09T17:09:09;18.00;99.90
54898;DHT22;40800;52.704;6.398;2022-09-09T17:11:36;18.00;99.90
54898;DHT22;40800;52.704;6.398;2022-09-09T17:14:02;17.80;99.90
54898;DHT22;40800;52.704;6.398;2022-09-09T17:16:30;17.80;99.90
54898;DHT22;40800;52.704;6.398;2022-09-09T17:18:57;17.90;99.90
54898;DHT22;40800;52.704;6.398;2022-09-09T17:21:24;17.70;99.90
54898;DHT22;40800;52.704;6.398;2022-09-09T17:23:51;17.70;99.90
54898;DHT22;40800;52.704;6.398;2022-09-09T17:26:20;17.80;99.90
54898;DHT22;40800;52.704;6.398;2022-09-09T17:28:47;18.00;99.90
54898;DHT22;40800;52.704;6.398;2022-09-09T17:31:14;17.90;99.90
54898;DHT22;40800;52.704;6.398;2022-09-09T17:33:42;17.70;99.90
54898;DHT22;40800;52.704;6.398;2022-09-09T17:36:11;17.80;99.90
54898;DHT22;40800;52.704;6.398;2022-09-09T17:38:38;17.80;99.90
54898;DHT22;40800;52.704;6.398;2022-09-09T17:41:06;17.80;99.90
54898;DHT22;40800;52.704;6.398;2022-09-09T17:43:33;17.90;99.90
54898;DHT22;40800;52.704;6.398;2022-09-09T17:46:16;18.00;99.90
54898;DHT22;40800;52.704;6.398;2022-09-09T17:48:43;17.90;99.90
54898;DHT22;40800;52.704;6.398;2022-09-09T17:51:13;17.90;99.90